Terminal Aerodrome Forecast
Issued by NWS

Home | Current Version | Previous Version | Text Only | Print | Product List | Glossary On
Versions: 1 2 3 4 5 6 7 8 9 10 11 12 13 14 15 16 17 18 19 20 21 22 23 24
000
FTUS43 KPAH 071720
TAFCGI
TAF
KCGI 071720Z 0718/0818 23008KT P6SM VCTS SCT025CB BKN035
      TEMPO 0718/0721 3SM TSRA OVC020CB
     FM080100 VRB04KT 5SM BR SCT015 BKN030
     FM080600 VRB03KT 3SM BR SCT008 BKN015
      TEMPO 0807/0811 2SM -TSRA BKN008CB
     FM081500 20008KT P6SM VCTS SCT015CB BKN030=

USA.gov is the U.S. government's official web portal to all federal, state and local government web resources and services.